createdAt,value
2018-02-09T00:01:26.837Z,76.23
2018-02-09T00:03:55.174Z,81.03
2018-02-09T00:06:22.804Z,78.87
2018-02-09T00:08:50.389Z,71.77
2018-02-09T00:11:18.008Z,75.27
2018-02-09T00:13:45.612Z,78.10
2018-02-09T00:16:13.165Z,78.60
2018-02-09T00:18:40.728Z,80.73
2018-02-09T00:21:08.286Z,89.37
2018-02-09T00:23:35.848Z,83.60
2018-02-09T00:26:03.426Z,83.70
2018-02-09T00:28:31.092Z,84.53
2018-02-09T00:30:58.610Z,80.13
2018-02-09T00:33:26.933Z,79.17
2018-02-09T00:35:54.466Z,74.97
2018-02-09T00:38:22.028Z,72.40
2018-02-09T00:40:49.679Z,84.17
2018-02-09T00:43:17.253Z,76.70
2018-02-09T00:45:44.829Z,81.83
2018-02-09T00:48:12.382Z,82.60
2018-02-09T00:50:39.932Z,74.17
2018-02-09T00:53:07.459Z,76.23
2018-02-09T00:55:35.130Z,73.47
2018-02-09T00:58:02.699Z,78.83
2018-02-09T01:00:30.344Z,74.57
2018-02-09T01:02:57.871Z,73.00
2018-02-09T01:05:26.275Z,67.00
2018-02-09T01:07:54.577Z,70.70
2018-02-09T01:10:22.168Z,74.23
2018-02-09T01:12:49.729Z,71.77
2018-02-09T01:15:17.275Z,75.67
2018-02-09T01:17:44.927Z,71.70
2018-02-09T01:20:12.513Z,83.23
2018-02-09T01:22:40.340Z,77.67
2018-02-09T01:25:07.860Z,73.80
2018-02-09T01:27:35.471Z,75.87
2018-02-09T01:30:02.995Z,73.93
2018-02-09T01:32:30.569Z,78.97
2018-02-09T01:34:58.295Z,70.20
2018-02-09T01:37:26.049Z,72.27
2018-02-09T01:39:54.347Z,74.23
2018-02-09T01:42:22.641Z,71.13
2018-02-09T01:44:50.194Z,78.57
2018-02-09T01:47:17.768Z,78.17
2018-02-09T01:49:45.335Z,67.17
2018-02-09T01:52:13.684Z,77.17
2018-02-09T01:54:41.307Z,76.53
2018-02-09T01:57:08.932Z,76.03
2018-02-09T01:59:36.447Z,80.57
2018-02-09T02:02:04.762Z,70.17
2018-02-09T02:04:32.428Z,73.67
2018-02-09T02:06:59.983Z,75.57
2018-02-09T02:09:28.422Z,74.93
2018-02-09T02:11:55.960Z,70.63
2018-02-09T02:14:24.289Z,83.63
2018-02-09T02:16:51.902Z,65.47
2018-02-09T02:19:19.517Z,73.87
2018-02-09T02:21:47.520Z,69.53
2018-02-09T02:24:15.091Z,74.37
2018-02-09T02:26:42.712Z,70.07
2018-02-09T02:29:11.073Z,72.53
2018-02-09T02:31:38.640Z,72.13
2018-02-09T02:34:06.185Z,80.80
2018-02-09T02:36:33.765Z,68.57
2018-02-09T02:39:01.409Z,65.53
2018-02-09T02:41:28.953Z,76.00
2018-02-09T02:43:56.496Z,67.83
2018-02-09T02:46:24.062Z,69.67
2018-02-09T02:48:51.607Z,72.27
2018-02-09T02:51:19.141Z,68.30
2018-02-09T02:53:46.713Z,65.37
2018-02-09T02:56:14.229Z,74.37
2018-02-09T02:58:41.780Z,69.13
2018-02-09T03:01:10.257Z,68.70
2018-02-09T03:03:38.634Z,66.77
2018-02-09T03:06:06.996Z,63.90
2018-02-09T03:08:34.622Z,69.93
2018-02-09T03:11:02.164Z,68.57
2018-02-09T03:13:29.721Z,67.53
2018-02-09T03:15:57.271Z,66.67
2018-02-09T03:18:24.875Z,68.83
2018-02-09T03:20:52.431Z,70.80
2018-02-09T03:23:20.013Z,72.30
2018-02-09T03:25:47.547Z,69.57
2018-02-09T03:28:15.093Z,67.63
2018-02-09T03:30:43.402Z,66.93
2018-02-09T03:33:10.941Z,71.23
2018-02-09T03:35:38.464Z,63.90
2018-02-09T03:38:06.047Z,74.53
2018-02-09T03:40:33.723Z,69.20
2018-02-09T03:43:01.356Z,64.57
2018-02-09T03:45:29.669Z,73.67
2018-02-09T03:47:57.174Z,66.40
2018-02-09T03:50:24.732Z,66.43
2018-02-09T03:52:52.377Z,66.07
2018-02-09T03:55:19.905Z,65.90
2018-02-09T03:57:47.426Z,66.70
2018-02-09T04:00:14.950Z,66.10
2018-02-09T04:02:42.475Z,62.40
2018-02-09T04:05:10.032Z,66.13
2018-02-09T04:07:37.592Z,60.90
2018-02-09T04:10:05.992Z,68.80
2018-02-09T04:12:33.509Z,66.20
2018-02-09T04:15:01.070Z,67.50
2018-02-09T04:17:28.616Z,63.03
2018-02-09T04:19:56.174Z,67.93
2018-02-09T04:22:23.790Z,68.73
2018-02-09T04:24:51.446Z,65.47
2018-02-09T04:27:19.025Z,66.23
2018-02-09T04:29:46.578Z,71.77
2018-02-09T04:32:14.104Z,64.20
2018-02-09T04:34:42.421Z,60.87
2018-02-09T04:37:10.761Z,62.67
2018-02-09T04:39:38.287Z,73.53
2018-02-09T04:42:05.878Z,65.47
2018-02-09T04:44:33.432Z,65.93
2018-02-09T04:47:00.974Z,59.73
2018-02-09T04:49:28.579Z,60.43
2018-02-09T04:51:56.142Z,65.20
2018-02-09T04:54:24.436Z,66.87
2018-02-09T04:56:51.996Z,63.27
2018-02-09T04:59:20.288Z,67.23
2018-02-09T05:01:48.621Z,70.33
2018-02-09T05:04:16.154Z,70.60
2018-02-09T05:06:44.462Z,63.60
2018-02-09T05:09:12.041Z,67.17
2018-02-09T05:11:39.609Z,67.37
2018-02-09T05:14:07.139Z,62.13
2018-02-09T05:16:35.422Z,63.90
2018-02-09T05:19:02.968Z,67.00
2018-02-09T05:21:30.625Z,62.00
2018-02-09T05:23:58.225Z,71.43
2018-02-09T05:26:25.808Z,64.77
2018-02-09T05:28:54.160Z,63.93
2018-02-09T05:31:21.689Z,71.67
2018-02-09T05:33:49.225Z,66.80
2018-02-09T05:36:16.744Z,70.70
2018-02-09T05:38:45.065Z,70.67
2018-02-09T05:41:12.613Z,71.77
2018-02-09T05:43:40.948Z,66.53
2018-02-09T05:46:08.581Z,60.67
2018-02-09T05:48:36.103Z,67.90
2018-02-09T05:51:03.871Z,65.10
2018-02-09T05:53:31.420Z,60.27
2018-02-09T05:55:59.045Z,65.00
2018-02-09T05:58:26.696Z,72.00
2018-02-09T06:00:54.457Z,65.30
2018-02-09T06:03:21.977Z,63.30
2018-02-09T06:05:50.349Z,63.90
2018-02-09T06:08:17.889Z,59.40
2018-02-09T06:10:45.501Z,56.33
2018-02-09T06:13:13.175Z,62.27
2018-02-09T06:15:40.696Z,60.97
2018-02-09T06:18:08.340Z,64.70
2018-02-09T06:20:35.951Z,65.40
2018-02-09T06:23:03.517Z,61.63
2018-02-09T06:25:31.108Z,61.77
2018-02-09T06:27:59.096Z,61.00
2018-02-09T06:30:26.700Z,58.37
2018-02-09T06:32:55.280Z,53.60
2018-02-09T06:35:22.787Z,55.40
2018-02-09T06:37:50.352Z,64.33
2018-02-09T06:40:18.669Z,59.57
2018-02-09T06:42:46.284Z,60.73
2018-02-09T06:45:15.341Z,56.53
2018-02-09T06:47:42.931Z,52.43
2018-02-09T06:50:10.530Z,58.73
2018-02-09T06:52:38.056Z,57.50
2018-02-09T06:55:05.674Z,58.67
2018-02-09T06:57:33.176Z,54.57
2018-02-09T07:00:01.550Z,50.47
2018-02-09T07:02:29.175Z,55.67
2018-02-09T07:04:56.723Z,56.70
2018-02-09T07:07:24.245Z,54.83
2018-02-09T07:09:51.816Z,58.63
2018-02-09T07:12:19.389Z,55.70
2018-02-09T07:14:46.938Z,53.63
2018-02-09T07:17:14.455Z,51.40
2018-02-09T07:19:42.012Z,54.73
2018-02-09T07:22:10.408Z,58.27
2018-02-09T07:24:37.965Z,59.90
2018-02-09T07:27:05.666Z,47.10
2018-02-09T07:29:33.297Z,60.97
2018-02-09T07:32:00.836Z,56.10
2018-02-09T07:34:29.434Z,55.90
2018-02-09T07:36:56.995Z,57.80
2018-02-09T07:39:24.575Z,56.83
2018-02-09T07:41:53.036Z,54.67
2018-02-09T07:44:20.586Z,54.40
2018-02-09T07:46:48.143Z,53.37
2018-02-09T07:49:15.697Z,51.77
2018-02-09T07:51:43.227Z,55.67
2018-02-09T07:54:10.812Z,58.57
2018-02-09T07:56:38.376Z,55.27
2018-02-09T07:59:05.938Z,58.97
2018-02-09T08:01:33.484Z,52.93
2018-02-09T08:04:01.064Z,57.73
2018-02-09T08:06:28.583Z,53.60
2018-02-09T08:08:56.924Z,50.30
2018-02-09T08:11:24.458Z,56.40
2018-02-09T08:13:52.018Z,54.83
2018-02-09T08:16:20.321Z,53.40
2018-02-09T08:18:47.879Z,54.87
2018-02-09T08:21:16.186Z,55.10
2018-02-09T08:23:43.727Z,56.17
2018-02-09T08:26:11.253Z,55.90
2018-02-09T08:28:38.790Z,55.40
2018-02-09T08:31:06.363Z,54.00
2018-02-09T08:33:33.948Z,58.87
2018-02-09T08:36:01.563Z,48.87
2018-02-09T08:38:29.332Z,52.13
2018-02-09T08:40:56.925Z,50.47
2018-02-09T08:43:24.439Z,56.30
2018-02-09T08:45:52.043Z,51.63
2018-02-09T08:48:19.641Z,54.90
2018-02-09T08:50:47.168Z,49.40
2018-02-09T08:53:15.184Z,55.50
2018-02-09T08:55:42.756Z,48.77
2018-02-09T08:58:11.182Z,54.90
2018-02-09T09:00:39.533Z,50.63
2018-02-09T09:03:07.130Z,51.70
2018-02-09T09:05:35.470Z,60.17
2018-02-09T09:08:03.057Z,50.33
2018-02-09T09:10:30.600Z,54.50
2018-02-09T09:12:58.152Z,53.60
2018-02-09T09:15:26.601Z,48.60
2018-02-09T09:17:54.163Z,52.67
2018-02-09T09:20:21.665Z,50.60
2018-02-09T09:22:49.201Z,51.30
2018-02-09T09:25:16.870Z,51.00
2018-02-09T09:27:44.379Z,49.53
2018-02-09T09:30:12.006Z,53.73
2018-02-09T09:32:39.653Z,47.47
2018-02-09T09:35:07.215Z,54.73
2018-02-09T09:37:35.554Z,55.83
2018-02-09T09:40:03.125Z,52.20
2018-02-09T09:42:30.711Z,53.23
2018-02-09T09:44:58.235Z,53.20
2018-02-09T09:47:26.557Z,50.53
2018-02-09T09:49:54.146Z,56.83
2018-02-09T09:52:21.753Z,55.90
2018-02-09T09:54:49.313Z,48.90
2018-02-09T09:57:16.937Z,59.53
2018-02-09T09:59:44.456Z,53.07
2018-02-09T10:02:23.973Z,57.33
2018-02-09T10:04:51.510Z,53.37
2018-02-09T10:07:19.139Z,50.90
2018-02-09T10:09:46.667Z,51.93
2018-02-09T10:12:14.988Z,58.17
2018-02-09T10:14:42.510Z,54.10
2018-02-09T10:17:10.849Z,51.07
2018-02-09T10:19:38.503Z,56.27
2018-02-09T10:22:06.140Z,56.30
2018-02-09T10:24:33.657Z,55.97
2018-02-09T10:27:01.224Z,52.53
2018-02-09T10:29:28.801Z,54.13
2018-02-09T10:31:56.375Z,53.63
2018-02-09T10:34:23.937Z,55.93
2018-02-09T10:36:51.506Z,51.30
2018-02-09T10:39:19.136Z,55.10
2018-02-09T10:41:46.736Z,55.17
2018-02-09T10:44:14.306Z,48.87
2018-02-09T10:46:42.760Z,50.53
2018-02-09T10:49:10.413Z,50.53
2018-02-09T10:51:38.049Z,49.70
2018-02-09T10:54:06.383Z,55.73
2018-02-09T10:56:33.891Z,52.40
2018-02-09T10:59:01.482Z,50.20
2018-02-09T11:01:35.584Z,50.63
2018-02-09T11:04:03.249Z,47.73
2018-02-09T11:06:30.782Z,48.07
2018-02-09T11:08:58.351Z,49.77
2018-02-09T11:11:26.743Z,46.63
2018-02-09T11:13:54.297Z,50.77
2018-02-09T11:16:21.907Z,45.67
2018-02-09T11:18:49.553Z,52.00
2018-02-09T11:21:17.179Z,46.33
2018-02-09T11:23:44.768Z,54.00
2018-02-09T11:26:13.116Z,51.20
2018-02-09T11:28:40.707Z,48.27
2018-02-09T11:31:08.240Z,48.97
2018-02-09T11:33:35.836Z,49.43
2018-02-09T11:36:03.372Z,54.40
2018-02-09T11:38:30.896Z,55.73
2018-02-09T11:40:58.431Z,54.77
2018-02-09T11:43:26.067Z,52.00
2018-02-09T11:45:53.609Z,53.80
2018-02-09T11:48:21.154Z,54.40
2018-02-09T11:50:48.676Z,46.73
2018-02-09T11:53:16.992Z,51.20
2018-02-09T11:55:44.601Z,55.47
2018-02-09T11:58:12.188Z,52.47
2018-02-09T12:00:39.711Z,51.67
2018-02-09T12:03:07.311Z,53.30
2018-02-09T12:05:34.903Z,52.33
2018-02-09T12:08:02.473Z,49.70
2018-02-09T12:10:30.022Z,49.40
2018-02-09T12:12:57.638Z,53.10
2018-02-09T12:15:25.251Z,55.00
2018-02-09T12:17:52.828Z,52.80
2018-02-09T12:20:20.412Z,50.90
2018-02-09T12:22:47.965Z,50.17
2018-02-09T12:25:15.527Z,58.23
2018-02-09T12:27:43.087Z,55.90
2018-02-09T12:30:11.380Z,55.10
2018-02-09T12:32:39.707Z,53.07
2018-02-09T12:35:07.236Z,48.23
2018-02-09T12:37:35.569Z,46.47
2018-02-09T12:40:03.192Z,44.43
2018-02-09T12:42:30.764Z,48.33
2018-02-09T12:44:58.391Z,51.73
2018-02-09T12:47:25.925Z,52.83
2018-02-09T12:49:54.229Z,49.53
2018-02-09T12:52:21.744Z,54.00
2018-02-09T12:54:49.292Z,49.90
2018-02-09T12:57:16.804Z,56.57
2018-02-09T12:59:44.383Z,51.30
2018-02-09T13:02:11.940Z,59.97
2018-02-09T13:04:39.478Z,53.57
2018-02-09T13:07:07.055Z,58.53
2018-02-09T13:09:34.595Z,49.83
2018-02-09T13:12:02.930Z,49.03
2018-02-09T13:14:42.445Z,50.00
2018-02-09T13:17:10.129Z,53.17
2018-02-09T13:19:37.701Z,48.17
2018-02-09T13:22:05.369Z,51.33
2018-02-09T13:24:33.004Z,50.00
2018-02-09T13:27:01.427Z,45.63
2018-02-09T13:29:28.955Z,46.80
2018-02-09T13:31:56.512Z,50.23
2018-02-09T13:34:24.080Z,45.00
2018-02-09T13:40:06.239Z,49.57
2018-02-09T13:42:33.714Z,48.83
2018-02-09T13:45:01.177Z,40.97
2018-02-09T13:47:28.634Z,47.53
2018-02-09T13:49:56.102Z,45.07
2018-02-09T13:52:23.580Z,46.83
2018-02-09T13:54:51.352Z,49.23
2018-02-09T13:57:18.822Z,42.43
2018-02-09T13:59:46.290Z,40.73
2018-02-09T14:02:13.766Z,40.67
2018-02-09T14:04:41.235Z,42.83
2018-02-09T14:07:08.704Z,38.50
2018-02-09T14:09:36.192Z,34.80
2018-02-09T14:12:03.661Z,37.10
2018-02-09T14:14:31.130Z,40.53
2018-02-09T14:16:58.607Z,44.27
2018-02-09T14:19:26.075Z,40.90
2018-02-09T14:21:53.585Z,47.13
2018-02-09T14:24:21.012Z,40.70
2018-02-09T14:26:48.490Z,45.90
2018-02-09T14:29:15.946Z,39.53
2018-02-09T14:31:43.405Z,48.37
2018-02-09T14:34:10.885Z,42.33
2018-02-09T14:36:38.346Z,40.20
2018-02-09T14:39:05.814Z,42.80
2018-02-09T14:41:33.275Z,41.83
2018-02-09T14:44:00.751Z,41.10
2018-02-09T14:46:28.221Z,39.83
2018-02-09T14:48:55.700Z,46.30
2018-02-09T14:51:23.164Z,44.83
2018-02-09T14:53:50.634Z,39.30
2018-02-09T14:56:18.102Z,42.70
2018-02-09T14:58:45.571Z,40.70
2018-02-09T15:01:13.058Z,38.77
2018-02-09T15:03:40.548Z,44.33
2018-02-09T15:06:08.010Z,39.50
2018-02-09T15:08:35.496Z,44.43
2018-02-09T15:11:02.965Z,44.47
2018-02-09T15:13:30.448Z,38.47
2018-02-09T15:15:58.718Z,45.03
2018-02-09T15:18:26.222Z,40.80
2018-02-09T15:20:54.449Z,43.37
2018-02-09T15:23:21.930Z,43.47
2018-02-09T15:25:49.406Z,40.97
2018-02-09T15:28:16.871Z,40.67
2018-02-09T15:30:44.346Z,41.37
2018-02-09T15:33:11.812Z,37.93
2018-02-09T15:35:39.288Z,40.40
2018-02-09T15:38:06.759Z,42.67
2018-02-09T15:40:34.249Z,44.10
2018-02-09T15:43:02.489Z,44.47
2018-02-09T15:45:29.962Z,47.23
2018-02-09T15:47:57.447Z,43.73
2018-02-09T15:50:24.916Z,42.87
2018-02-09T15:52:52.390Z,45.93
2018-02-09T15:55:19.868Z,47.70
2018-02-09T15:57:47.331Z,44.90
2018-02-09T16:00:14.814Z,46.57
2018-02-09T16:02:42.284Z,45.50
2018-02-09T16:05:09.758Z,42.83
2018-02-09T16:07:37.230Z,42.87
2018-02-09T16:10:04.882Z,43.23
2018-02-09T16:12:32.379Z,47.80
2018-02-09T16:14:59.856Z,39.67
2018-02-09T16:17:28.104Z,42.67
2018-02-09T16:19:55.589Z,42.80
2018-02-09T16:22:23.050Z,47.10
2018-02-09T16:24:50.534Z,44.90
2018-02-09T16:27:17.993Z,43.03
2018-02-09T16:29:45.461Z,46.90
2018-02-09T16:32:12.944Z,42.73
2018-02-09T16:34:40.419Z,43.30
2018-02-09T16:37:07.907Z,45.27
2018-02-09T16:39:36.148Z,44.73
2018-02-09T16:42:03.623Z,44.73
2018-02-09T16:44:31.090Z,46.63
2018-02-09T16:46:58.576Z,41.77
2018-02-09T16:49:26.039Z,48.23
2018-02-09T16:51:53.519Z,52.70
2018-02-09T16:54:20.992Z,46.80
2018-02-09T16:56:48.467Z,53.33
2018-02-09T16:59:15.927Z,50.20
2018-02-09T17:01:43.403Z,55.20
2018-02-09T17:04:10.877Z,51.70
2018-02-09T17:06:38.363Z,49.07
2018-02-09T17:09:06.596Z,49.70
2018-02-09T17:11:34.075Z,50.57
2018-02-09T17:14:01.553Z,52.63
2018-02-09T17:16:29.027Z,54.03
2018-02-09T17:18:56.509Z,50.17
2018-02-09T17:21:23.987Z,51.13
2018-02-09T17:23:51.458Z,55.43
2018-02-09T17:26:18.944Z,51.13
2018-02-09T17:28:47.184Z,61.33
2018-02-09T17:31:14.688Z,52.50
2018-02-09T17:33:42.151Z,51.03
2018-02-09T17:36:09.631Z,49.17
2018-02-09T17:38:37.122Z,50.53
2018-02-09T17:41:05.353Z,50.80
2018-02-09T17:43:32.835Z,49.53
2018-02-09T17:46:00.308Z,57.23
2018-02-09T17:48:27.784Z,59.77
2018-02-09T17:50:55.362Z,54.90
2018-02-09T17:53:22.918Z,51.53
2018-02-09T17:55:50.464Z,55.17
2018-02-09T17:58:18.032Z,59.70
2018-02-09T18:00:45.608Z,53.63
2018-02-09T18:03:13.304Z,53.93
2018-02-09T18:05:40.851Z,54.60
2018-02-09T18:08:08.404Z,42.27
2018-02-09T18:10:36.029Z,43.47
2018-02-09T18:13:03.623Z,46.57
2018-02-09T18:15:31.189Z,47.50
2018-02-09T18:17:58.794Z,49.23
2018-02-09T18:20:27.123Z,56.17
2018-02-09T18:22:54.661Z,51.13
2018-02-09T18:25:22.295Z,45.43
2018-02-09T18:27:49.880Z,52.27
2018-02-09T18:30:18.229Z,49.87
2018-02-09T18:32:45.828Z,51.43
2018-02-09T18:35:13.464Z,52.13
2018-02-09T18:37:41.029Z,51.87
2018-02-09T18:40:08.566Z,53.63
2018-02-09T18:42:36.884Z,50.00
2018-02-09T18:45:04.478Z,54.17
2018-02-09T18:47:32.018Z,53.63
2018-02-09T18:49:59.591Z,48.63
2018-02-09T18:52:27.201Z,58.13
2018-02-09T18:54:54.762Z,51.47
2018-02-09T18:57:22.376Z,60.77
2018-02-09T18:59:50.003Z,54.27
2018-02-09T19:02:17.531Z,48.13
2018-02-09T19:04:45.937Z,55.50
2018-02-09T19:07:14.240Z,54.17
2018-02-09T19:09:41.876Z,60.90
2018-02-09T19:12:10.998Z,60.87
2018-02-09T19:14:39.384Z,61.17
2018-02-09T19:17:06.938Z,58.17
2018-02-09T19:19:34.571Z,52.33
2018-02-09T19:22:02.137Z,54.80
2018-02-09T19:24:29.709Z,55.80
2018-02-09T19:26:57.233Z,56.00
2018-02-09T19:29:24.828Z,57.20
2018-02-09T19:31:53.195Z,55.90
2018-02-09T19:34:20.741Z,56.43
2018-02-09T19:36:48.269Z,58.00
2018-02-09T19:39:16.644Z,54.97
2018-02-09T19:41:44.207Z,55.47
2018-02-09T19:44:11.766Z,62.23
2018-02-09T19:46:39.291Z,59.67
2018-02-09T19:49:06.853Z,61.00
2018-02-09T19:51:35.276Z,65.07
2018-02-09T19:54:02.861Z,58.47
2018-02-09T19:56:30.427Z,58.43
2018-02-09T19:58:58.008Z,55.93
2018-02-09T20:01:25.568Z,52.23
2018-02-09T20:03:53.109Z,48.60
2018-02-09T20:06:20.696Z,56.83
2018-02-09T20:08:48.216Z,55.67
2018-02-09T20:11:15.824Z,57.27
2018-02-09T20:13:43.367Z,54.47
2018-02-09T20:16:10.896Z,52.97
2018-02-09T20:18:38.435Z,56.67
2018-02-09T20:21:05.999Z,58.70
2018-02-09T20:23:34.391Z,62.17
2018-02-09T20:26:02.368Z,55.47
2018-02-09T20:28:30.661Z,58.70
2018-02-09T20:30:58.993Z,57.53
2018-02-09T20:33:26.578Z,59.90
2018-02-09T20:35:54.170Z,58.27
2018-02-09T20:38:21.709Z,53.03
2018-02-09T20:40:49.271Z,60.73
2018-02-09T20:43:16.865Z,60.17
2018-02-09T20:45:44.466Z,59.77
2018-02-09T20:48:11.972Z,56.90
2018-02-09T20:50:39.519Z,61.00
2018-02-09T20:53:07.826Z,56.17
2018-02-09T20:55:37.156Z,48.93
2018-02-09T20:58:05.679Z,51.80
2018-02-09T21:00:33.284Z,60.67
2018-02-09T21:03:00.852Z,59.07
2018-02-09T21:05:29.151Z,60.80
2018-02-09T21:07:57.467Z,53.93
2018-02-09T21:10:25.065Z,60.33
2018-02-09T21:12:52.687Z,55.57
2018-02-09T21:15:21.053Z,55.10
2018-02-09T21:17:48.582Z,58.40
2018-02-09T21:20:16.136Z,57.40
2018-02-09T21:22:43.659Z,59.30
2018-02-09T21:25:11.171Z,57.43
2018-02-09T21:27:39.536Z,59.13
2018-02-09T21:30:07.132Z,57.97
2018-02-09T21:32:35.432Z,60.57
2018-02-09T21:35:03.729Z,57.63
2018-02-09T21:37:31.332Z,60.93
2018-02-09T21:39:59.780Z,60.70
2018-02-09T21:42:28.112Z,67.67
2018-02-09T21:44:55.711Z,70.03
2018-02-09T21:47:23.280Z,62.80
2018-02-09T21:49:50.836Z,59.60
2018-02-09T21:52:18.377Z,68.30
2018-02-09T21:54:45.988Z,61.70
2018-02-09T21:57:13.549Z,57.87
2018-02-09T21:59:41.137Z,62.43
2018-02-09T22:02:08.731Z,60.47
2018-02-09T22:04:36.464Z,58.27
2018-02-09T22:07:04.080Z,54.03
2018-02-09T22:09:31.651Z,59.37
2018-02-09T22:11:59.315Z,54.70
2018-02-09T22:14:26.819Z,60.20
2018-02-09T22:16:55.111Z,52.10
2018-02-09T22:19:23.456Z,52.67
2018-02-09T22:21:50.975Z,56.53
2018-02-09T22:24:19.279Z,58.47
2018-02-09T22:26:46.897Z,55.53
2018-02-09T22:29:14.503Z,54.13
2018-02-09T22:31:42.819Z,52.17
2018-02-09T22:34:10.355Z,48.77
2018-02-09T22:36:37.897Z,56.40
2018-02-09T22:39:05.460Z,54.03
2018-02-09T22:41:33.153Z,54.77
2018-02-09T22:44:00.790Z,58.03
2018-02-09T22:49:01.301Z,56.33
2018-02-09T22:51:28.921Z,56.10
2018-02-09T22:53:56.504Z,53.20
2018-02-09T22:56:24.095Z,53.53
2018-02-09T22:58:51.612Z,54.33
2018-02-09T23:01:19.938Z,50.43
2018-02-09T23:03:47.663Z,54.33
2018-02-09T23:06:15.283Z,55.43
2018-02-09T23:08:42.811Z,57.10
2018-02-09T23:11:10.364Z,59.63
2018-02-09T23:13:37.937Z,56.40
2018-02-09T23:16:05.476Z,62.13
2018-02-09T23:18:33.120Z,53.83
2018-02-09T23:21:01.420Z,63.80
2018-02-09T23:23:28.950Z,53.10
2018-02-09T23:25:56.527Z,62.33
2018-02-09T23:28:24.056Z,68.90
2018-02-09T23:30:51.612Z,57.60
2018-02-09T23:33:19.187Z,59.33
2018-02-09T23:35:46.793Z,62.63
2018-02-09T23:38:14.339Z,60.67
2018-02-09T23:40:41.882Z,60.93
2018-02-09T23:43:10.174Z,61.63
2018-02-09T23:45:38.465Z,62.07
2018-02-09T23:48:06.853Z,60.60
2018-02-09T23:50:35.241Z,62.70
2018-02-09T23:53:03.643Z,59.37
2018-02-09T23:55:31.304Z,59.97
2018-02-09T23:57:59.595Z,62.30
